Aeroporto :
LOGIN :

Iscrizione | Disclaimer

   EN    FR    IT 

 










Sommario :    VFR   VFR Marginale   IFR   IFR Intensivo   IFR Molto Intensivo
Visibilità : 
Base nubi : 
>= 8 km
>= 3000ft
5 / 8 km
1000 / 3000 ft
1500m / 5 km
500 / 1000 ft
800 / 1500m
200 / 500 ft
< 800m
< 200 ft
Simboli :   Temporali  Nebbia  Neve Forte  Precipitazioni Forti  Vento > 20 kt
SIGMETs :   Varie  Temporali  Ghiacco  Turbolenza  Onda orograficha  Ceneri Vulcaniche






- Altitudine del aeroporto : 1470 ft


LSMD - Dubendorf Military

ULTIMO METAR :
  • 090720Z 12003KT 6000 -SHRA BKN041 BKN047 01/M00 Q1007 RMK GRN

METARs OBSOLETI :
  • 090650Z 27004KT 240V300 4700 -SHRA SCT010 BKN037 BKN055 01/00 Q1007 RMK GRN
  • 090620Z 00000KT 5000 BR SCT012 BKN029 OVC038 00/M00 Q1007 RMK WHT
  • 090550Z 00000KT 5000 BKN009 BKN015 OVC031 01/00 Q1006 RMK GRN
  • 090520Z AUTO 00000KT 5000NDV BR SCT008 BKN010 OVC035 01/00 Q1006 RMK
  • 090450Z AUTO 00000KT 4600NDV -SHRA BR OVC008 00/M00 Q1006 RMK

Previsioni scadute.



MetMap, La meteo Aeronautica in un colpo d'occhio ! - Copyright ORBIFLY Dicembre 2007 - Disclaimer

ORBIFLY MET'MAP TEAM :

Programmazione e sviluppo : Alexandra Zaïnal
Concezione : Baudouin d'Aumeries
Aiuto per la programmazione : Marc-Olivier Méhu
Supporto tecnico e logistico : Manuel Goepfert
Aiuto per la traduzione : Arnaldo La Scala

Contatto : metmap@orbifly.com




FONTI E CREDITI :

   NOAA